sensor_id;sensor_type;location;lat;lon;timestamp;P1;durP1;ratioP1;P2;durP2;ratioP2
46407;SDS011;32110;45.724;21.276;2024-03-25T00:01:59;18.30;;;9.45;;
46407;SDS011;32110;45.724;21.276;2024-03-25T00:04:25;18.77;;;9.63;;
46407;SDS011;32110;45.724;21.276;2024-03-25T00:06:50;15.10;;;9.45;;
46407;SDS011;32110;45.724;21.276;2024-03-25T00:09:16;17.40;;;10.18;;
46407;SDS011;32110;45.724;21.276;2024-03-25T00:11:42;20.38;;;10.38;;
46407;SDS011;32110;45.724;21.276;2024-03-25T00:14:07;15.23;;;9.07;;
46407;SDS011;32110;45.724;21.276;2024-03-25T00:16:33;18.73;;;10.13;;
46407;SDS011;32110;45.724;21.276;2024-03-25T00:18:58;17.58;;;9.88;;
46407;SDS011;32110;45.724;21.276;2024-03-25T00:21:23;17.83;;;9.93;;
46407;SDS011;32110;45.724;21.276;2024-03-25T00:23:49;17.65;;;10.02;;
46407;SDS011;32110;45.724;21.276;2024-03-25T00:26:14;17.08;;;9.68;;
46407;SDS011;32110;45.724;21.276;2024-03-25T00:28:40;17.23;;;9.32;;
46407;SDS011;32110;45.724;21.276;2024-03-25T00:31:05;17.08;;;9.23;;
46407;SDS011;32110;45.724;21.276;2024-03-25T00:33:30;17.00;;;9.75;;
46407;SDS011;32110;45.724;21.276;2024-03-25T00:35:56;17.42;;;10.05;;
46407;SDS011;32110;45.724;21.276;2024-03-25T00:38:21;23.05;;;9.88;;
46407;SDS011;32110;45.724;21.276;2024-03-25T00:40:46;22.45;;;10.70;;
46407;SDS011;32110;45.724;21.276;2024-03-25T00:43:12;27.50;;;11.50;;
46407;SDS011;32110;45.724;21.276;2024-03-25T00:45:37;32.28;;;10.52;;
46407;SDS011;32110;45.724;21.276;2024-03-25T00:48:03;24.77;;;10.88;;
46407;SDS011;32110;45.724;21.276;2024-03-25T00:50:28;20.73;;;10.23;;
46407;SDS011;32110;45.724;21.276;2024-03-25T00:52:54;17.33;;;9.45;;
46407;SDS011;32110;45.724;21.276;2024-03-25T00:55:19;18.55;;;9.60;;
46407;SDS011;32110;45.724;21.276;2024-03-25T00:57:44;17.05;;;9.45;;
46407;SDS011;32110;45.724;21.276;2024-03-25T01:00:10;17.80;;;9.27;;
46407;SDS011;32110;45.724;21.276;2024-03-25T01:02:35;19.65;;;10.88;;
46407;SDS011;32110;45.724;21.276;2024-03-25T01:05:01;30.33;;;12.65;;
46407;SDS011;32110;45.724;21.276;2024-03-25T01:07:27;22.65;;;11.13;;
46407;SDS011;32110;45.724;21.276;2024-03-25T01:09:52;28.58;;;11.85;;
46407;SDS011;32110;45.724;21.276;2024-03-25T01:12:18;23.83;;;12.20;;
46407;SDS011;32110;45.724;21.276;2024-03-25T01:14:43;23.48;;;12.00;;
46407;SDS011;32110;45.724;21.276;2024-03-25T01:17:08;32.72;;;14.07;;
46407;SDS011;32110;45.724;21.276;2024-03-25T01:19:34;30.10;;;13.52;;
46407;SDS011;32110;45.724;21.276;2024-03-25T01:21:59;29.77;;;13.80;;
46407;SDS011;32110;45.724;21.276;2024-03-25T01:24:24;29.13;;;14.10;;
46407;SDS011;32110;45.724;21.276;2024-03-25T01:26:50;29.55;;;13.85;;
46407;SDS011;32110;45.724;21.276;2024-03-25T01:29:15;31.45;;;14.25;;
46407;SDS011;32110;45.724;21.276;2024-03-25T01:31:41;30.25;;;14.40;;
46407;SDS011;32110;45.724;21.276;2024-03-25T01:34:06;28.38;;;13.90;;
46407;SDS011;32110;45.724;21.276;2024-03-25T01:36:31;32.47;;;14.73;;
46407;SDS011;32110;45.724;21.276;2024-03-25T01:38:57;28.55;;;14.27;;
46407;SDS011;32110;45.724;21.276;2024-03-25T01:41:22;30.02;;;14.63;;
46407;SDS011;32110;45.724;21.276;2024-03-25T01:43:48;31.77;;;15.35;;
46407;SDS011;32110;45.724;21.276;2024-03-25T01:46:14;30.85;;;15.45;;
46407;SDS011;32110;45.724;21.276;2024-03-25T01:48:40;30.52;;;16.15;;
46407;SDS011;32110;45.724;21.276;2024-03-25T01:51:05;29.05;;;14.25;;
46407;SDS011;32110;45.724;21.276;2024-03-25T01:53:31;29.02;;;14.50;;
46407;SDS011;32110;45.724;21.276;2024-03-25T01:55:56;26.00;;;13.15;;
46407;SDS011;32110;45.724;21.276;2024-03-25T01:58:24;27.35;;;14.18;;
46407;SDS011;32110;45.724;21.276;2024-03-25T02:00:51;26.52;;;13.65;;
46407;SDS011;32110;45.724;21.276;2024-03-25T02:03:16;26.15;;;12.85;;
46407;SDS011;32110;45.724;21.276;2024-03-25T02:05:42;25.55;;;13.15;;
46407;SDS011;32110;45.724;21.276;2024-03-25T02:08:07;24.88;;;13.10;;
46407;SDS011;32110;45.724;21.276;2024-03-25T02:10:34;29.95;;;13.55;;
46407;SDS011;32110;45.724;21.276;2024-03-25T02:13:00;28.88;;;13.43;;
46407;SDS011;32110;45.724;21.276;2024-03-25T02:15:26;27.58;;;12.95;;
46407;SDS011;32110;45.724;21.276;2024-03-25T02:17:51;38.78;;;13.05;;
46407;SDS011;32110;45.724;21.276;2024-03-25T02:20:17;28.23;;;13.43;;
46407;SDS011;32110;45.724;21.276;2024-03-25T02:22:42;38.53;;;13.27;;
46407;SDS011;32110;45.724;21.276;2024-03-25T02:25:08;29.27;;;12.13;;
46407;SDS011;32110;45.724;21.276;2024-03-25T02:27:34;49.92;;;13.30;;
46407;SDS011;32110;45.724;21.276;2024-03-25T02:30:09;56.15;;;12.73;;
46407;SDS011;32110;45.724;21.276;2024-03-25T02:32:38;40.72;;;9.02;;
46407;SDS011;32110;45.724;21.276;2024-03-25T02:35:05;71.63;;;13.13;;
46407;SDS011;32110;45.724;21.276;2024-03-25T02:37:31;50.67;;;13.07;;
46407;SDS011;32110;45.724;21.276;2024-03-25T02:39:58;36.95;;;13.07;;
46407;SDS011;32110;45.724;21.276;2024-03-25T02:42:28;48.58;;;11.93;;
46407;SDS011;32110;45.724;21.276;2024-03-25T02:44:57;38.00;;;10.00;;
46407;SDS011;32110;45.724;21.276;2024-03-25T02:47:22;60.47;;;10.20;;
46407;SDS011;32110;45.724;21.276;2024-03-25T02:49:48;62.60;;;10.50;;
46407;SDS011;32110;45.724;21.276;2024-03-25T02:52:13;30.02;;;9.48;;
46407;SDS011;32110;45.724;21.276;2024-03-25T02:54:39;35.38;;;9.57;;
46407;SDS011;32110;45.724;21.276;2024-03-25T02:57:04;46.30;;;9.88;;
46407;SDS011;32110;45.724;21.276;2024-03-25T02:59:29;38.17;;;10.23;;
46407;SDS011;32110;45.724;21.276;2024-03-25T03:01:55;57.88;;;10.25;;
46407;SDS011;32110;45.724;21.276;2024-03-25T03:04:20;47.33;;;10.55;;
46407;SDS011;32110;45.724;21.276;2024-03-25T03:06:45;38.60;;;11.25;;
46407;SDS011;32110;45.724;21.276;2024-03-25T03:09:11;45.67;;;11.23;;
46407;SDS011;32110;45.724;21.276;2024-03-25T03:11:36;42.90;;;11.60;;
46407;SDS011;32110;45.724;21.276;2024-03-25T03:14:01;47.85;;;12.00;;
46407;SDS011;32110;45.724;21.276;2024-03-25T03:16:27;47.22;;;11.77;;
46407;SDS011;32110;45.724;21.276;2024-03-25T03:18:54;45.83;;;12.75;;
46407;SDS011;32110;45.724;21.276;2024-03-25T03:21:19;46.63;;;13.07;;
46407;SDS011;32110;45.724;21.276;2024-03-25T03:23:44;60.17;;;13.40;;
46407;SDS011;32110;45.724;21.276;2024-03-25T03:26:10;67.20;;;13.70;;
46407;SDS011;32110;45.724;21.276;2024-03-25T03:28:35;48.28;;;12.75;;
46407;SDS011;32110;45.724;21.276;2024-03-25T03:31:00;47.22;;;12.95;;
46407;SDS011;32110;45.724;21.276;2024-03-25T03:33:26;42.72;;;14.32;;
46407;SDS011;32110;45.724;21.276;2024-03-25T03:35:51;52.85;;;13.32;;
46407;SDS011;32110;45.724;21.276;2024-03-25T03:38:16;40.00;;;12.75;;
46407;SDS011;32110;45.724;21.276;2024-03-25T03:40:42;36.80;;;12.15;;
46407;SDS011;32110;45.724;21.276;2024-03-25T03:43:07;45.15;;;12.35;;
46407;SDS011;32110;45.724;21.276;2024-03-25T03:45:33;44.50;;;12.20;;
46407;SDS011;32110;45.724;21.276;2024-03-25T03:47:59;41.10;;;12.20;;
46407;SDS011;32110;45.724;21.276;2024-03-25T03:50:24;46.40;;;11.95;;
46407;SDS011;32110;45.724;21.276;2024-03-25T03:52:50;134.82;;;19.75;;
46407;SDS011;32110;45.724;21.276;2024-03-25T03:55:15;26.35;;;12.18;;
46407;SDS011;32110;45.724;21.276;2024-03-25T03:57:40;45.17;;;12.70;;
46407;SDS011;32110;45.724;21.276;2024-03-25T04:00:07;34.42;;;12.38;;
46407;SDS011;32110;45.724;21.276;2024-03-25T04:02:33;87.80;;;13.38;;
46407;SDS011;32110;45.724;21.276;2024-03-25T04:04:58;67.93;;;14.45;;
46407;SDS011;32110;45.724;21.276;2024-03-25T04:07:24;68.68;;;14.75;;
46407;SDS011;32110;45.724;21.276;2024-03-25T04:09:53;42.22;;;12.90;;
46407;SDS011;32110;45.724;21.276;2024-03-25T04:12:18;72.40;;;12.88;;
46407;SDS011;32110;45.724;21.276;2024-03-25T04:14:46;49.17;;;12.25;;
46407;SDS011;32110;45.724;21.276;2024-03-25T04:17:11;66.40;;;13.80;;
46407;SDS011;32110;45.724;21.276;2024-03-25T04:19:37;58.58;;;12.27;;
46407;SDS011;32110;45.724;21.276;2024-03-25T04:22:02;86.88;;;13.30;;
46407;SDS011;32110;45.724;21.276;2024-03-25T04:24:28;103.15;;;16.30;;
46407;SDS011;32110;45.724;21.276;2024-03-25T04:26:53;40.33;;;12.85;;
46407;SDS011;32110;45.724;21.276;2024-03-25T04:29:19;81.95;;;14.30;;
46407;SDS011;32110;45.724;21.276;2024-03-25T04:31:44;53.83;;;14.07;;
46407;SDS011;32110;45.724;21.276;2024-03-25T04:34:10;52.25;;;13.50;;
46407;SDS011;32110;45.724;21.276;2024-03-25T04:36:35;84.57;;;15.02;;
46407;SDS011;32110;45.724;21.276;2024-03-25T04:39:01;72.72;;;13.38;;
46407;SDS011;32110;45.724;21.276;2024-03-25T04:41:27;69.47;;;14.02;;
46407;SDS011;32110;45.724;21.276;2024-03-25T04:43:52;73.38;;;12.45;;
46407;SDS011;32110;45.724;21.276;2024-03-25T04:46:17;67.00;;;12.75;;
46407;SDS011;32110;45.724;21.276;2024-03-25T04:48:43;61.65;;;12.85;;
46407;SDS011;32110;45.724;21.276;2024-03-25T04:51:08;50.05;;;13.63;;
46407;SDS011;32110;45.724;21.276;2024-03-25T04:53:34;58.50;;;14.15;;
46407;SDS011;32110;45.724;21.276;2024-03-25T04:55:59;59.40;;;13.77;;
46407;SDS011;32110;45.724;21.276;2024-03-25T04:58:24;70.00;;;13.60;;
46407;SDS011;32110;45.724;21.276;2024-03-25T05:00:50;104.50;;;14.80;;
46407;SDS011;32110;45.724;21.276;2024-03-25T05:03:15;64.38;;;13.20;;
46407;SDS011;32110;45.724;21.276;2024-03-25T05:05:40;80.30;;;13.02;;
46407;SDS011;32110;45.724;21.276;2024-03-25T05:08:06;61.67;;;14.52;;
46407;SDS011;32110;45.724;21.276;2024-03-25T05:10:31;56.22;;;12.07;;
46407;SDS011;32110;45.724;21.276;2024-03-25T05:12:56;66.13;;;13.63;;
46407;SDS011;32110;45.724;21.276;2024-03-25T05:15:22;57.80;;;12.88;;
46407;SDS011;32110;45.724;21.276;2024-03-25T05:17:47;102.95;;;26.10;;
46407;SDS011;32110;45.724;21.276;2024-03-25T05:20:13;80.63;;;23.45;;
46407;SDS011;32110;45.724;21.276;2024-03-25T05:22:38;69.47;;;18.88;;
46407;SDS011;32110;45.724;21.276;2024-03-25T05:25:03;74.93;;;14.95;;
46407;SDS011;32110;45.724;21.276;2024-03-25T05:27:29;72.40;;;13.07;;
46407;SDS011;32110;45.724;21.276;2024-03-25T05:29:55;49.55;;;12.63;;
46407;SDS011;32110;45.724;21.276;2024-03-25T05:32:20;38.92;;;11.70;;
46407;SDS011;32110;45.724;21.276;2024-03-25T05:34:47;35.80;;;10.90;;
46407;SDS011;32110;45.724;21.276;2024-03-25T05:37:13;41.95;;;12.73;;
46407;SDS011;32110;45.724;21.276;2024-03-25T05:39:38;40.22;;;11.95;;
46407;SDS011;32110;45.724;21.276;2024-03-25T05:42:03;73.03;;;12.70;;
46407;SDS011;32110;45.724;21.276;2024-03-25T05:44:29;49.22;;;11.95;;
46407;SDS011;32110;45.724;21.276;2024-03-25T05:46:54;35.05;;;12.35;;
46407;SDS011;32110;45.724;21.276;2024-03-25T05:49:20;29.83;;;12.43;;
46407;SDS011;32110;45.724;21.276;2024-03-25T05:51:45;36.53;;;13.07;;
46407;SDS011;32110;45.724;21.276;2024-03-25T05:54:10;55.00;;;12.65;;
46407;SDS011;32110;45.724;21.276;2024-03-25T05:56:35;40.42;;;13.55;;
46407;SDS011;32110;45.724;21.276;2024-03-25T05:59:01;47.33;;;15.02;;
46407;SDS011;32110;45.724;21.276;2024-03-25T06:01:26;56.40;;;14.40;;
46407;SDS011;32110;45.724;21.276;2024-03-25T06:03:52;33.92;;;13.73;;
46407;SDS011;32110;45.724;21.276;2024-03-25T06:06:17;31.60;;;12.50;;
46407;SDS011;32110;45.724;21.276;2024-03-25T06:08:43;32.05;;;14.68;;
46407;SDS011;32110;45.724;21.276;2024-03-25T06:11:08;42.78;;;14.35;;
46407;SDS011;32110;45.724;21.276;2024-03-25T06:13:33;86.68;;;19.20;;
46407;SDS011;32110;45.724;21.276;2024-03-25T06:15:59;54.13;;;14.98;;
46407;SDS011;32110;45.724;21.276;2024-03-25T06:18:24;44.55;;;15.10;;
46407;SDS011;32110;45.724;21.276;2024-03-25T06:20:50;40.35;;;16.83;;
46407;SDS011;32110;45.724;21.276;2024-03-25T06:23:22;39.28;;;16.10;;
46407;SDS011;32110;45.724;21.276;2024-03-25T06:25:48;36.67;;;15.48;;
46407;SDS011;32110;45.724;21.276;2024-03-25T06:28:13;34.80;;;16.77;;
46407;SDS011;32110;45.724;21.276;2024-03-25T06:30:38;35.55;;;15.82;;
46407;SDS011;32110;45.724;21.276;2024-03-25T06:33:22;34.75;;;15.48;;
46407;SDS011;32110;45.724;21.276;2024-03-25T06:36:06;85.45;;;15.38;;
46407;SDS011;32110;45.724;21.276;2024-03-25T06:38:32;30.08;;;12.77;;
46407;SDS011;32110;45.724;21.276;2024-03-25T06:40:57;29.95;;;13.52;;
46407;SDS011;32110;45.724;21.276;2024-03-25T06:43:23;112.55;;;17.77;;
46407;SDS011;32110;45.724;21.276;2024-03-25T06:45:49;36.25;;;16.42;;
46407;SDS011;32110;45.724;21.276;2024-03-25T06:48:14;41.75;;;19.02;;
46407;SDS011;32110;45.724;21.276;2024-03-25T06:50:39;51.28;;;23.42;;
46407;SDS011;32110;45.724;21.276;2024-03-25T06:53:05;54.72;;;23.40;;
46407;SDS011;32110;45.724;21.276;2024-03-25T06:55:31;39.90;;;18.65;;
46407;SDS011;32110;45.724;21.276;2024-03-25T06:57:56;36.30;;;17.35;;
46407;SDS011;32110;45.724;21.276;2024-03-25T07:00:21;37.80;;;16.77;;
46407;SDS011;32110;45.724;21.276;2024-03-25T07:02:47;36.83;;;16.38;;
46407;SDS011;32110;45.724;21.276;2024-03-25T07:05:12;35.15;;;16.10;;
46407;SDS011;32110;45.724;21.276;2024-03-25T07:07:38;37.60;;;16.75;;
46407;SDS011;32110;45.724;21.276;2024-03-25T07:10:03;36.40;;;16.15;;
46407;SDS011;32110;45.724;21.276;2024-03-25T07:12:29;36.15;;;16.67;;
46407;SDS011;32110;45.724;21.276;2024-03-25T07:14:54;34.65;;;16.77;;
46407;SDS011;32110;45.724;21.276;2024-03-25T07:17:19;34.15;;;16.95;;
46407;SDS011;32110;45.724;21.276;2024-03-25T07:19:46;37.60;;;17.92;;
46407;SDS011;32110;45.724;21.276;2024-03-25T07:22:12;45.80;;;18.45;;
46407;SDS011;32110;45.724;21.276;2024-03-25T07:24:37;45.13;;;20.25;;
46407;SDS011;32110;45.724;21.276;2024-03-25T07:27:02;45.45;;;20.58;;
46407;SDS011;32110;45.724;21.276;2024-03-25T07:29:28;44.55;;;20.65;;
46407;SDS011;32110;45.724;21.276;2024-03-25T07:31:53;41.35;;;18.35;;
46407;SDS011;32110;45.724;21.276;2024-03-25T07:34:18;40.55;;;17.88;;
46407;SDS011;32110;45.724;21.276;2024-03-25T07:36:44;37.95;;;17.60;;
46407;SDS011;32110;45.724;21.276;2024-03-25T07:39:09;25.90;;;14.02;;
46407;SDS011;32110;45.724;21.276;2024-03-25T07:41:36;16.77;;;9.65;;
46407;SDS011;32110;45.724;21.276;2024-03-25T07:44:04;18.00;;;9.83;;
46407;SDS011;32110;45.724;21.276;2024-03-25T07:46:30;12.07;;;7.45;;
46407;SDS011;32110;45.724;21.276;2024-03-25T07:48:56;13.10;;;6.50;;
46407;SDS011;32110;45.724;21.276;2024-03-25T07:51:21;12.35;;;7.43;;
46407;SDS011;32110;45.724;21.276;2024-03-25T07:53:47;10.70;;;6.57;;
46407;SDS011;32110;45.724;21.276;2024-03-25T07:56:14;11.05;;;6.43;;
46407;SDS011;32110;45.724;21.276;2024-03-25T07:58:41;10.45;;;5.82;;
46407;SDS011;32110;45.724;21.276;2024-03-25T08:01:06;10.20;;;5.90;;
46407;SDS011;32110;45.724;21.276;2024-03-25T08:03:32;9.25;;;5.50;;
46407;SDS011;32110;45.724;21.276;2024-03-25T08:05:58;12.40;;;6.03;;
46407;SDS011;32110;45.724;21.276;2024-03-25T08:08:24;11.18;;;5.63;;
46407;SDS011;32110;45.724;21.276;2024-03-25T08:10:49;10.48;;;5.68;;
46407;SDS011;32110;45.724;21.276;2024-03-25T08:13:15;10.90;;;5.60;;
46407;SDS011;32110;45.724;21.276;2024-03-25T08:15:41;9.68;;;5.40;;
46407;SDS011;32110;45.724;21.276;2024-03-25T08:18:06;9.88;;;5.47;;
46407;SDS011;32110;45.724;21.276;2024-03-25T08:20:32;10.50;;;4.80;;
46407;SDS011;32110;45.724;21.276;2024-03-25T08:22:57;7.50;;;4.47;;
46407;SDS011;32110;45.724;21.276;2024-03-25T08:25:23;7.60;;;4.63;;
46407;SDS011;32110;45.724;21.276;2024-03-25T08:27:48;9.63;;;4.43;;
46407;SDS011;32110;45.724;21.276;2024-03-25T08:30:14;9.55;;;4.65;;
46407;SDS011;32110;45.724;21.276;2024-03-25T08:32:39;6.22;;;4.30;;
46407;SDS011;32110;45.724;21.276;2024-03-25T08:35:05;6.43;;;3.80;;
46407;SDS011;32110;45.724;21.276;2024-03-25T08:37:31;5.55;;;3.80;;
46407;SDS011;32110;45.724;21.276;2024-03-25T08:39:56;8.25;;;4.13;;
46407;SDS011;32110;45.724;21.276;2024-03-25T08:42:22;6.75;;;3.92;;
46407;SDS011;32110;45.724;21.276;2024-03-25T08:44:47;5.63;;;3.85;;
46407;SDS011;32110;45.724;21.276;2024-03-25T08:47:13;6.68;;;3.90;;
46407;SDS011;32110;45.724;21.276;2024-03-25T08:49:38;6.05;;;3.60;;
46407;SDS011;32110;45.724;21.276;2024-03-25T08:52:04;21.05;;;9.35;;
46407;SDS011;32110;45.724;21.276;2024-03-25T08:54:29;82.38;;;17.70;;
46407;SDS011;32110;45.724;21.276;2024-03-25T08:56:55;207.82;;;42.97;;
46407;SDS011;32110;45.724;21.276;2024-03-25T08:59:20;19.88;;;8.00;;
46407;SDS011;32110;45.724;21.276;2024-03-25T09:01:46;12.07;;;4.22;;
46407;SDS011;32110;45.724;21.276;2024-03-25T09:04:12;6.10;;;3.70;;
46407;SDS011;32110;45.724;21.276;2024-03-25T09:06:37;8.45;;;3.42;;
46407;SDS011;32110;45.724;21.276;2024-03-25T09:09:03;5.43;;;3.45;;
46407;SDS011;32110;45.724;21.276;2024-03-25T09:11:47;9.82;;;3.42;;
46407;SDS011;32110;45.724;21.276;2024-03-25T09:14:12;10.07;;;4.18;;
46407;SDS011;32110;45.724;21.276;2024-03-25T09:16:38;6.38;;;3.20;;
46407;SDS011;32110;45.724;21.276;2024-03-25T09:19:03;7.07;;;2.80;;
46407;SDS011;32110;45.724;21.276;2024-03-25T09:21:29;4.97;;;2.50;;
46407;SDS011;32110;45.724;21.276;2024-03-25T09:24:10;4.95;;;2.60;;
46407;SDS011;32110;45.724;21.276;2024-03-25T09:26:35;5.07;;;2.20;;
46407;SDS011;32110;45.724;21.276;2024-03-25T09:29:01;3.83;;;2.20;;
46407;SDS011;32110;45.724;21.276;2024-03-25T09:31:28;3.00;;;2.22;;
46407;SDS011;32110;45.724;21.276;2024-03-25T09:33:53;4.53;;;2.50;;
46407;SDS011;32110;45.724;21.276;2024-03-25T09:36:19;4.75;;;2.30;;
46407;SDS011;32110;45.724;21.276;2024-03-25T09:38:44;3.72;;;2.20;;
46407;SDS011;32110;45.724;21.276;2024-03-25T09:41:10;4.25;;;2.30;;
46407;SDS011;32110;45.724;21.276;2024-03-25T09:46:15;4.90;;;2.08;;
46407;SDS011;32110;45.724;21.276;2024-03-25T09:48:41;3.10;;;2.00;;
46407;SDS011;32110;45.724;21.276;2024-03-25T09:51:07;3.55;;;1.90;;
46407;SDS011;32110;45.724;21.276;2024-03-25T09:53:34;3.72;;;1.85;;
46407;SDS011;32110;45.724;21.276;2024-03-25T09:56:00;3.13;;;1.85;;
46407;SDS011;32110;45.724;21.276;2024-03-25T09:58:26;2.45;;;1.65;;
46407;SDS011;32110;45.724;21.276;2024-03-25T10:00:52;1.92;;;1.33;;
46407;SDS011;32110;45.724;21.276;2024-03-25T10:03:20;3.80;;;1.80;;
46407;SDS011;32110;45.724;21.276;2024-03-25T10:05:45;5.30;;;1.75;;
46407;SDS011;32110;45.724;21.276;2024-03-25T10:08:11;3.28;;;1.95;;
46407;SDS011;32110;45.724;21.276;2024-03-25T10:10:37;2.58;;;1.80;;
46407;SDS011;32110;45.724;21.276;2024-03-25T10:13:03;3.78;;;1.90;;
46407;SDS011;32110;45.724;21.276;2024-03-25T10:15:30;1.88;;;1.30;;
46407;SDS011;32110;45.724;21.276;2024-03-25T10:17:55;4.03;;;1.65;;
46407;SDS011;32110;45.724;21.276;2024-03-25T10:20:20;8.43;;;1.98;;
46407;SDS011;32110;45.724;21.276;2024-03-25T10:22:47;3.47;;;1.75;;
46407;SDS011;32110;45.724;21.276;2024-03-25T10:25:28;4.75;;;1.75;;
46407;SDS011;32110;45.724;21.276;2024-03-25T10:27:59;3.92;;;1.30;;
46407;SDS011;32110;45.724;21.276;2024-03-25T10:30:25;2.55;;;1.40;;
46407;SDS011;32110;45.724;21.276;2024-03-25T10:35:27;3.10;;;1.45;;
46407;SDS011;32110;45.724;21.276;2024-03-25T10:37:58;2.55;;;1.40;;
46407;SDS011;32110;45.724;21.276;2024-03-25T10:40:30;1.98;;;1.27;;
46407;SDS011;32110;45.724;21.276;2024-03-25T10:45:30;2.67;;;1.40;;
46407;SDS011;32110;45.724;21.276;2024-03-25T10:47:57;3.15;;;1.90;;
46407;SDS011;32110;45.724;21.276;2024-03-25T10:50:28;2.88;;;1.40;;
46407;SDS011;32110;45.724;21.276;2024-03-25T10:52:54;1.95;;;1.23;;
46407;SDS011;32110;45.724;21.276;2024-03-25T10:55:22;2.47;;;1.40;;
46407;SDS011;32110;45.724;21.276;2024-03-25T10:57:49;1.88;;;1.27;;
46407;SDS011;32110;45.724;21.276;2024-03-25T11:00:17;1.73;;;1.40;;
46407;SDS011;32110;45.724;21.276;2024-03-25T11:02:45;1.38;;;0.98;;
46407;SDS011;32110;45.724;21.276;2024-03-25T11:05:11;4.60;;;1.50;;
46407;SDS011;32110;45.724;21.276;2024-03-25T11:07:37;1.58;;;1.10;;
46407;SDS011;32110;45.724;21.276;2024-03-25T11:10:05;4.03;;;1.30;;
46407;SDS011;32110;45.724;21.276;2024-03-25T11:12:35;2.53;;;1.20;;
46407;SDS011;32110;45.724;21.276;2024-03-25T11:15:02;5.13;;;1.40;;
46407;SDS011;32110;45.724;21.276;2024-03-25T11:17:29;5.88;;;1.25;;
46407;SDS011;32110;45.724;21.276;2024-03-25T11:20:05;3.13;;;1.25;;
46407;SDS011;32110;45.724;21.276;2024-03-25T11:22:35;3.38;;;1.15;;
46407;SDS011;32110;45.724;21.276;2024-03-25T11:25:07;5.75;;;1.02;;
46407;SDS011;32110;45.724;21.276;2024-03-25T11:27:34;1.38;;;0.77;;
46407;SDS011;32110;45.724;21.276;2024-03-25T11:30:02;1.50;;;1.10;;
46407;SDS011;32110;45.724;21.276;2024-03-25T11:32:29;2.30;;;1.20;;
46407;SDS011;32110;45.724;21.276;2024-03-25T11:34:55;1.95;;;0.93;;
46407;SDS011;32110;45.724;21.276;2024-03-25T11:37:20;2.35;;;0.80;;
46407;SDS011;32110;45.724;21.276;2024-03-25T11:39:46;3.97;;;0.80;;
46407;SDS011;32110;45.724;21.276;2024-03-25T11:42:12;2.33;;;0.90;;
46407;SDS011;32110;45.724;21.276;2024-03-25T11:44:38;7.88;;;1.02;;
46407;SDS011;32110;45.724;21.276;2024-03-25T11:47:05;3.00;;;0.90;;
46407;SDS011;32110;45.724;21.276;2024-03-25T11:52:02;1.90;;;0.80;;
46407;SDS011;32110;45.724;21.276;2024-03-25T11:54:27;2.63;;;1.05;;
46407;SDS011;32110;45.724;21.276;2024-03-25T11:56:55;2.50;;;1.00;;
46407;SDS011;32110;45.724;21.276;2024-03-25T11:59:21;2.17;;;1.23;;
46407;SDS011;32110;45.724;21.276;2024-03-25T12:01:46;1.30;;;0.80;;
46407;SDS011;32110;45.724;21.276;2024-03-25T12:04:12;1.20;;;0.90;;
46407;SDS011;32110;45.724;21.276;2024-03-25T12:09:06;3.47;;;1.38;;
46407;SDS011;32110;45.724;21.276;2024-03-25T12:11:51;2.22;;;1.20;;
46407;SDS011;32110;45.724;21.276;2024-03-25T12:14:16;1.77;;;1.10;;
46407;SDS011;32110;45.724;21.276;2024-03-25T12:16:42;2.58;;;1.10;;
46407;SDS011;32110;45.724;21.276;2024-03-25T12:19:08;5.10;;;1.08;;
46407;SDS011;32110;45.724;21.276;2024-03-25T12:21:33;3.38;;;1.20;;
46407;SDS011;32110;45.724;21.276;2024-03-25T12:23:59;5.85;;;1.30;;
46407;SDS011;32110;45.724;21.276;2024-03-25T12:26:25;2.53;;;1.20;;
46407;SDS011;32110;45.724;21.276;2024-03-25T12:28:50;2.08;;;1.05;;
46407;SDS011;32110;45.724;21.276;2024-03-25T12:31:17;1.85;;;1.10;;
46407;SDS011;32110;45.724;21.276;2024-03-25T12:33:43;2.35;;;0.93;;
46407;SDS011;32110;45.724;21.276;2024-03-25T12:36:11;2.25;;;1.10;;
46407;SDS011;32110;45.724;21.276;2024-03-25T12:38:37;3.05;;;0.95;;
46407;SDS011;32110;45.724;21.276;2024-03-25T12:41:12;3.88;;;1.23;;
46407;SDS011;32110;45.724;21.276;2024-03-25T12:43:44;1.90;;;1.23;;
46407;SDS011;32110;45.724;21.276;2024-03-25T12:46:10;4.53;;;1.25;;
46407;SDS011;32110;45.724;21.276;2024-03-25T12:48:37;1.42;;;1.20;;
46407;SDS011;32110;45.724;21.276;2024-03-25T12:51:03;2.40;;;1.10;;
46407;SDS011;32110;45.724;21.276;2024-03-25T12:53:30;3.20;;;1.13;;
46407;SDS011;32110;45.724;21.276;2024-03-25T12:55:55;3.13;;;1.33;;
46407;SDS011;32110;45.724;21.276;2024-03-25T12:58:21;4.82;;;1.15;;
46407;SDS011;32110;45.724;21.276;2024-03-25T13:00:46;1.23;;;0.93;;
46407;SDS011;32110;45.724;21.276;2024-03-25T13:03:12;1.67;;;0.80;;
46407;SDS011;32110;45.724;21.276;2024-03-25T13:05:38;3.65;;;1.02;;
46407;SDS011;32110;45.724;21.276;2024-03-25T13:08:03;3.53;;;1.15;;
46407;SDS011;32110;45.724;21.276;2024-03-25T13:10:29;5.18;;;1.40;;
46407;SDS011;32110;45.724;21.276;2024-03-25T13:12:56;1.30;;;0.95;;
46407;SDS011;32110;45.724;21.276;2024-03-25T13:15:22;3.08;;;1.00;;
46407;SDS011;32110;45.724;21.276;2024-03-25T13:17:47;3.05;;;1.20;;
46407;SDS011;32110;45.724;21.276;2024-03-25T13:20:13;1.77;;;1.20;;
46407;SDS011;32110;45.724;21.276;2024-03-25T13:22:39;3.50;;;1.05;;
46407;SDS011;32110;45.724;21.276;2024-03-25T13:25:05;1.23;;;0.95;;
46407;SDS011;32110;45.724;21.276;2024-03-25T13:27:31;1.27;;;1.10;;
46407;SDS011;32110;45.724;21.276;2024-03-25T13:29:57;2.40;;;0.95;;
46407;SDS011;32110;45.724;21.276;2024-03-25T13:32:22;4.72;;;1.10;;
46407;SDS011;32110;45.724;21.276;2024-03-25T13:34:49;2.45;;;0.93;;
46407;SDS011;32110;45.724;21.276;2024-03-25T13:37:15;1.27;;;1.00;;
46407;SDS011;32110;45.724;21.276;2024-03-25T13:39:40;3.22;;;1.15;;
46407;SDS011;32110;45.724;21.276;2024-03-25T13:42:06;4.50;;;1.10;;
46407;SDS011;32110;45.724;21.276;2024-03-25T13:44:31;3.95;;;1.10;;
46407;SDS011;32110;45.724;21.276;2024-03-25T13:46:57;2.10;;;1.00;;
46407;SDS011;32110;45.724;21.276;2024-03-25T13:49:22;4.15;;;1.10;;
46407;SDS011;32110;45.724;21.276;2024-03-25T13:51:51;2.80;;;1.00;;
46407;SDS011;32110;45.724;21.276;2024-03-25T13:54:24;2.22;;;0.90;;
46407;SDS011;32110;45.724;21.276;2024-03-25T13:56:51;2.58;;;1.00;;
46407;SDS011;32110;45.724;21.276;2024-03-25T13:59:16;5.32;;;2.22;;
46407;SDS011;32110;45.724;21.276;2024-03-25T14:01:42;4.88;;;2.00;;
46407;SDS011;32110;45.724;21.276;2024-03-25T14:04:07;6.40;;;2.30;;
46407;SDS011;32110;45.724;21.276;2024-03-25T14:06:33;5.40;;;1.92;;
46407;SDS011;32110;45.724;21.276;2024-03-25T14:09:01;1.85;;;1.25;;
46407;SDS011;32110;45.724;21.276;2024-03-25T14:11:29;2.05;;;1.20;;
46407;SDS011;32110;45.724;21.276;2024-03-25T14:13:55;5.15;;;2.25;;
46407;SDS011;32110;45.724;21.276;2024-03-25T14:16:21;3.88;;;1.40;;
46407;SDS011;32110;45.724;21.276;2024-03-25T14:18:46;1.92;;;1.10;;
46407;SDS011;32110;45.724;21.276;2024-03-25T14:21:12;5.10;;;1.95;;
46407;SDS011;32110;45.724;21.276;2024-03-25T14:23:38;5.57;;;2.20;;
46407;SDS011;32110;45.724;21.276;2024-03-25T14:26:08;1.98;;;1.30;;
46407;SDS011;32110;45.724;21.276;2024-03-25T14:28:33;1.85;;;0.93;;